sensor_id;sensor_type;location;lat;lon;timestamp;pressure;altitude;pressure_sealevel;temperature;humidity
23241;BME280;11789;53.482;9.862;2023-06-26T00:01:37;101434.97;;;20.68;94.59
23241;BME280;11789;53.482;9.862;2023-06-26T00:04:05;101444.56;;;20.69;94.59
23241;BME280;11789;53.482;9.862;2023-06-26T00:06:30;101436.69;;;20.69;94.66
23241;BME280;11789;53.482;9.862;2023-06-26T00:08:56;101430.44;;;20.72;94.72
23241;BME280;11789;53.482;9.862;2023-06-26T00:11:24;101434.84;;;20.71;95.08
23241;BME280;11789;53.482;9.862;2023-06-26T00:13:51;101429.72;;;20.68;94.92
23241;BME280;11789;53.482;9.862;2023-06-26T00:16:16;101432.38;;;20.67;94.62
23241;BME280;11789;53.482;9.862;2023-06-26T00:18:42;101432.75;;;20.56;94.93
23241;BME280;11789;53.482;9.862;2023-06-26T00:21:07;101424.22;;;20.50;95.18
23241;BME280;11789;53.482;9.862;2023-06-26T00:23:33;101425.16;;;20.47;95.30
23241;BME280;11789;53.482;9.862;2023-06-26T00:26:03;101420.00;;;20.44;95.42
23241;BME280;11789;53.482;9.862;2023-06-26T00:28:29;101416.69;;;20.37;95.68
23241;BME280;11789;53.482;9.862;2023-06-26T00:30:54;101413.19;;;20.37;95.80
23241;BME280;11789;53.482;9.862;2023-06-26T00:33:20;101408.16;;;20.31;95.97
23241;BME280;11789;53.482;9.862;2023-06-26T00:35:45;101410.00;;;20.29;96.33
23241;BME280;11789;53.482;9.862;2023-06-26T00:38:10;101409.28;;;20.24;96.61
23241;BME280;11789;53.482;9.862;2023-06-26T00:40:36;101405.88;;;20.20;96.83
23241;BME280;11789;53.482;9.862;2023-06-26T00:43:01;101404.16;;;20.19;96.93
23241;BME280;11789;53.482;9.862;2023-06-26T00:45:28;101403.19;;;20.21;97.03
23241;BME280;11789;53.482;9.862;2023-06-26T00:47:53;101406.66;;;20.24;97.03
23241;BME280;11789;53.482;9.862;2023-06-26T00:50:20;101406.66;;;20.24;97.06
23241;BME280;11789;53.482;9.862;2023-06-26T00:52:46;101400.44;;;20.26;97.38
23241;BME280;11789;53.482;9.862;2023-06-26T00:55:12;101386.72;;;20.18;97.37
23241;BME280;11789;53.482;9.862;2023-06-26T00:57:37;101393.03;;;20.12;97.49
23241;BME280;11789;53.482;9.862;2023-06-26T01:00:03;101386.09;;;20.10;97.36
23241;BME280;11789;53.482;9.862;2023-06-26T01:02:29;101394.16;;;20.04;97.35
23241;BME280;11789;53.482;9.862;2023-06-26T01:05:00;101383.03;;;19.95;97.92
23241;BME280;11789;53.482;9.862;2023-06-26T01:07:28;101390.00;;;19.96;97.89
23241;BME280;11789;53.482;9.862;2023-06-26T01:09:54;101385.47;;;20.02;98.30
23241;BME280;11789;53.482;9.862;2023-06-26T01:12:19;101382.13;;;19.96;98.27
23241;BME280;11789;53.482;9.862;2023-06-26T01:14:45;101380.41;;;19.95;98.42
23241;BME280;11789;53.482;9.862;2023-06-26T01:17:11;101384.72;;;19.98;98.56
23241;BME280;11789;53.482;9.862;2023-06-26T01:19:42;101386.56;;;19.94;98.36
23241;BME280;11789;53.482;9.862;2023-06-26T01:22:31;101376.97;;;19.93;98.42
23241;BME280;11789;53.482;9.862;2023-06-26T01:27:50;101370.31;;;19.83;98.77
23241;BME280;11789;53.482;9.862;2023-06-26T01:30:19;101365.13;;;19.80;98.83
23241;BME280;11789;53.482;9.862;2023-06-26T01:32:45;101356.63;;;19.74;99.32
23241;BME280;11789;53.482;9.862;2023-06-26T01:35:12;101358.53;;;19.68;99.34
23241;BME280;11789;53.482;9.862;2023-06-26T01:37:37;101346.44;;;19.63;99.57
23241;BME280;11789;53.482;9.862;2023-06-26T01:40:03;101349.16;;;19.60;99.83
23241;BME280;11789;53.482;9.862;2023-06-26T01:42:33;101350.03;;;19.59;99.77
23241;BME280;11789;53.482;9.862;2023-06-26T01:45:06;101354.44;;;19.58;99.75
23241;BME280;11789;53.482;9.862;2023-06-26T01:47:35;101347.56;;;19.54;99.82
23241;BME280;11789;53.482;9.862;2023-06-26T01:50:11;101342.13;;;19.62;99.52
23241;BME280;11789;53.482;9.862;2023-06-26T01:53:17;101338.59;;;19.63;99.49
23241;BME280;11789;53.482;9.862;2023-06-26T01:58:14;101340.16;;;19.68;99.23
23241;BME280;11789;53.482;9.862;2023-06-26T02:00:42;101334.78;;;19.72;98.96
23241;BME280;11789;53.482;9.862;2023-06-26T02:03:08;101334.78;;;19.73;98.98
23241;BME280;11789;53.482;9.862;2023-06-26T02:05:34;101332.88;;;19.77;99.11
23241;BME280;11789;53.482;9.862;2023-06-26T02:07:59;101326.75;;;19.78;99.12
23241;BME280;11789;53.482;9.862;2023-06-26T02:10:26;101332.00;;;19.78;99.28
23241;BME280;11789;53.482;9.862;2023-06-26T02:12:52;101319.88;;;19.74;99.34
23241;BME280;11789;53.482;9.862;2023-06-26T02:15:17;101323.41;;;19.73;99.41
23241;BME280;11789;53.482;9.862;2023-06-26T02:17:42;101315.63;;;19.69;99.09
23241;BME280;11789;53.482;9.862;2023-06-26T02:20:09;101314.06;;;19.64;98.87
23241;BME280;11789;53.482;9.862;2023-06-26T02:22:35;101308.06;;;19.59;98.84
23241;BME280;11789;53.482;9.862;2023-06-26T02:25:01;101314.38;;;19.53;98.73
23241;BME280;11789;53.482;9.862;2023-06-26T02:27:26;101311.94;;;19.47;98.78
23241;BME280;11789;53.482;9.862;2023-06-26T02:29:52;101306.72;;;19.45;98.80
23241;BME280;11789;53.482;9.862;2023-06-26T02:32:18;101304.28;;;19.39;99.14
23241;BME280;11789;53.482;9.862;2023-06-26T02:34:43;101300.88;;;19.36;99.36
23241;BME280;11789;53.482;9.862;2023-06-26T02:37:08;101297.47;;;19.34;99.52
23241;BME280;11789;53.482;9.862;2023-06-26T02:39:35;101301.91;;;19.32;99.78
23241;BME280;11789;53.482;9.862;2023-06-26T02:42:01;101301.19;;;19.27;100.00
23241;BME280;11789;53.482;9.862;2023-06-26T02:44:27;101295.16;;;19.23;100.00
23241;BME280;11789;53.482;9.862;2023-06-26T02:46:52;101304.81;;;19.23;100.00
23241;BME280;11789;53.482;9.862;2023-06-26T02:49:18;101306.56;;;19.22;100.00
23241;BME280;11789;53.482;9.862;2023-06-26T02:51:43;101307.44;;;19.23;100.00
23241;BME280;11789;53.482;9.862;2023-06-26T02:54:09;101309.19;;;19.22;100.00
23241;BME280;11789;53.482;9.862;2023-06-26T02:56:34;101309.19;;;19.22;100.00
23241;BME280;11789;53.482;9.862;2023-06-26T02:59:00;101290.00;;;19.20;100.00
23241;BME280;11789;53.482;9.862;2023-06-26T03:01:25;101294.44;;;19.18;100.00
23241;BME280;11789;53.482;9.862;2023-06-26T03:03:51;101296.28;;;19.14;100.00
23241;BME280;11789;53.482;9.862;2023-06-26T03:06:16;101293.69;;;19.14;100.00
23241;BME280;11789;53.482;9.862;2023-06-26T03:08:42;101295.44;;;19.14;100.00
23241;BME280;11789;53.482;9.862;2023-06-26T03:11:08;101291.06;;;19.14;100.00
23241;BME280;11789;53.482;9.862;2023-06-26T03:13:34;101292.81;;;19.14;100.00
23241;BME280;11789;53.482;9.862;2023-06-26T03:16:00;101271.94;;;19.11;100.00
23241;BME280;11789;53.482;9.862;2023-06-26T03:18:26;101283.44;;;19.07;100.00
23241;BME280;11789;53.482;9.862;2023-06-26T03:20:53;101278.28;;;19.04;100.00
23241;BME280;11789;53.482;9.862;2023-06-26T03:23:22;101279.22;;;19.01;100.00
23241;BME280;11789;53.482;9.862;2023-06-26T03:25:48;101280.16;;;18.99;100.00
23241;BME280;11789;53.482;9.862;2023-06-26T03:28:14;101278.34;;;19.01;100.00
23241;BME280;11789;53.482;9.862;2023-06-26T03:30:40;101281.03;;;18.99;100.00
23241;BME280;11789;53.482;9.862;2023-06-26T03:33:05;101277.50;;;19.00;100.00
23241;BME280;11789;53.482;9.862;2023-06-26T03:35:31;101273.94;;;19.03;100.00
23241;BME280;11789;53.482;9.862;2023-06-26T03:37:57;101278.28;;;19.04;100.00
23241;BME280;11789;53.482;9.862;2023-06-26T03:40:22;101279.97;;;19.05;100.00
23241;BME280;11789;53.482;9.862;2023-06-26T03:42:48;101274.75;;;19.05;100.00
23241;BME280;11789;53.482;9.862;2023-06-26T03:45:13;101272.94;;;19.07;100.00
23241;BME280;11789;53.482;9.862;2023-06-26T03:47:39;101258.09;;;19.07;100.00
23241;BME280;11789;53.482;9.862;2023-06-26T03:50:04;101257.22;;;19.07;100.00
23241;BME280;11789;53.482;9.862;2023-06-26T03:52:30;101256.31;;;19.08;100.00
23241;BME280;11789;53.482;9.862;2023-06-26T03:54:57;101252.72;;;19.12;100.00
23241;BME280;11789;53.482;9.862;2023-06-26T03:57:22;101251.75;;;19.14;100.00
23241;BME280;11789;53.482;9.862;2023-06-26T03:59:48;101248.22;;;19.15;100.00
23241;BME280;11789;53.482;9.862;2023-06-26T04:02:14;101246.47;;;19.16;100.00
23241;BME280;11789;53.482;9.862;2023-06-26T04:04:39;101241.03;;;19.22;100.00
23241;BME280;11789;53.482;9.862;2023-06-26T04:07:05;101236.44;;;19.29;100.00
23241;BME280;11789;53.482;9.862;2023-06-26T04:09:30;101240.75;;;19.31;100.00
23241;BME280;11789;53.482;9.862;2023-06-26T04:11:55;101244.19;;;19.33;99.73
23241;BME280;11789;53.482;9.862;2023-06-26T04:14:21;101238.84;;;19.36;99.43
23241;BME280;11789;53.482;9.862;2023-06-26T04:16:47;101235.12;;;19.43;98.90
23241;BME280;11789;53.482;9.862;2023-06-26T04:19:12;101236.63;;;19.51;98.29
23241;BME280;11789;53.482;9.862;2023-06-26T04:21:38;101228.59;;;19.57;97.86
23241;BME280;11789;53.482;9.862;2023-06-26T04:24:04;101232.84;;;19.61;97.51
23241;BME280;11789;53.482;9.862;2023-06-26T04:26:29;101223.91;;;19.66;97.44
23241;BME280;11789;53.482;9.862;2023-06-26T04:28:55;101226.34;;;19.73;97.30
23241;BME280;11789;53.482;9.862;2023-06-26T04:31:20;101216.66;;;19.75;97.20
23241;BME280;11789;53.482;9.862;2023-06-26T04:33:47;101213.81;;;19.81;96.92
23241;BME280;11789;53.482;9.862;2023-06-26T04:36:16;101214.59;;;19.84;96.64
23241;BME280;11789;53.482;9.862;2023-06-26T04:38:42;101217.00;;;19.90;96.33
23241;BME280;11789;53.482;9.862;2023-06-26T04:41:07;101214.16;;;19.96;96.14
23241;BME280;11789;53.482;9.862;2023-06-26T04:43:33;101214.00;;;20.01;95.81
23241;BME280;11789;53.482;9.862;2023-06-26T04:45:58;101209.41;;;20.08;95.36
23241;BME280;11789;53.482;9.862;2023-06-26T04:48:24;101208.28;;;20.15;95.11
23241;BME280;11789;53.482;9.862;2023-06-26T04:50:49;101210.75;;;20.19;94.86
23241;BME280;11789;53.482;9.862;2023-06-26T04:53:20;101202.59;;;20.27;94.53
23241;BME280;11789;53.482;9.862;2023-06-26T04:55:46;101210.28;;;20.33;94.06
23241;BME280;11789;53.482;9.862;2023-06-26T04:58:12;101202.22;;;20.38;93.97
23241;BME280;11789;53.482;9.862;2023-06-26T05:00:37;101197.53;;;20.46;93.84
23241;BME280;11789;53.482;9.862;2023-06-26T05:03:03;101202.56;;;20.54;93.62
23241;BME280;11789;53.482;9.862;2023-06-26T05:05:29;101187.47;;;20.59;92.86
23241;BME280;11789;53.482;9.862;2023-06-26T05:07:55;101186.25;;;20.67;92.81
23241;BME280;11789;53.482;9.862;2023-06-26T05:10:21;101173.63;;;20.77;92.59
23241;BME280;11789;53.482;9.862;2023-06-26T05:12:47;101183.88;;;20.85;92.02
23241;BME280;11789;53.482;9.862;2023-06-26T05:15:13;101183.63;;;20.91;91.34
23241;BME280;11789;53.482;9.862;2023-06-26T05:17:38;101180.72;;;20.98;90.94
23241;BME280;11789;53.482;9.862;2023-06-26T05:20:04;101186.44;;;21.08;90.58
23241;BME280;11789;53.482;9.862;2023-06-26T05:22:32;101173.00;;;21.16;90.06
23241;BME280;11789;53.482;9.862;2023-06-26T05:24:59;101163.84;;;21.26;89.52
23241;BME280;11789;53.482;9.862;2023-06-26T05:27:26;101164.22;;;21.39;88.92
23241;BME280;11789;53.482;9.862;2023-06-26T05:29:52;101169.06;;;21.49;88.14
23241;BME280;11789;53.482;9.862;2023-06-26T05:32:18;101168.53;;;21.62;87.21
23241;BME280;11789;53.482;9.862;2023-06-26T05:34:47;101162.75;;;21.74;86.93
23241;BME280;11789;53.482;9.862;2023-06-26T05:37:19;101159.69;;;21.85;86.00
23241;BME280;11789;53.482;9.862;2023-06-26T05:39:46;101146.81;;;21.97;85.78
23241;BME280;11789;53.482;9.862;2023-06-26T05:42:12;101145.78;;;22.01;86.48
23241;BME280;11789;53.482;9.862;2023-06-26T05:44:37;101146.34;;;22.08;86.73
23241;BME280;11789;53.482;9.862;2023-06-26T05:47:03;101148.41;;;22.22;85.46
23241;BME280;11789;53.482;9.862;2023-06-26T05:49:28;101139.16;;;22.32;83.79
23241;BME280;11789;53.482;9.862;2023-06-26T05:51:54;101136.25;;;22.38;81.73
23241;BME280;11789;53.482;9.862;2023-06-26T05:54:19;101140.25;;;22.47;79.02
23241;BME280;11789;53.482;9.862;2023-06-26T05:56:46;101134.56;;;22.56;77.80
23241;BME280;11789;53.482;9.862;2023-06-26T05:59:14;101133.91;;;22.70;78.20
23241;BME280;11789;53.482;9.862;2023-06-26T06:01:41;101133.69;;;22.74;79.23
23241;BME280;11789;53.482;9.862;2023-06-26T06:04:07;101133.06;;;22.88;79.31
23241;BME280;11789;53.482;9.862;2023-06-26T06:06:32;101126.56;;;22.95;79.17
23241;BME280;11789;53.482;9.862;2023-06-26T06:08:58;101121.91;;;23.00;79.59
23241;BME280;11789;53.482;9.862;2023-06-26T06:11:23;101125.28;;;23.04;80.29
23241;BME280;11789;53.482;9.862;2023-06-26T06:13:48;101123.56;;;23.03;76.83
23241;BME280;11789;53.482;9.862;2023-06-26T06:16:14;101126.75;;;23.10;77.55
23241;BME280;11789;53.482;9.862;2023-06-26T06:18:40;101126.22;;;23.20;78.28
23241;BME280;11789;53.482;9.862;2023-06-26T06:21:05;101126.81;;;23.27;77.82
23241;BME280;11789;53.482;9.862;2023-06-26T06:23:30;101125.56;;;23.34;77.65
23241;BME280;11789;53.482;9.862;2023-06-26T06:25:56;101117.31;;;23.40;75.60
23241;BME280;11789;53.482;9.862;2023-06-26T06:28:21;101113.22;;;23.52;74.26
23241;BME280;11789;53.482;9.862;2023-06-26T06:30:47;101102.28;;;23.60;73.93
23241;BME280;11789;53.482;9.862;2023-06-26T06:33:13;101104.47;;;23.69;74.44
23241;BME280;11789;53.482;9.862;2023-06-26T06:35:39;101096.09;;;23.78;73.60
23241;BME280;11789;53.482;9.862;2023-06-26T06:38:05;101099.09;;;23.88;73.79
23241;BME280;11789;53.482;9.862;2023-06-26T06:40:30;101091.00;;;23.91;73.76
23241;BME280;11789;53.482;9.862;2023-06-26T06:42:56;101090.00;;;23.93;73.62
23241;BME280;11789;53.482;9.862;2023-06-26T06:45:21;101103.62;;;24.01;75.13
23241;BME280;11789;53.482;9.862;2023-06-26T06:47:47;101091.28;;;24.02;73.57
23241;BME280;11789;53.482;9.862;2023-06-26T06:50:12;101084.91;;;24.06;73.54
23241;BME280;11789;53.482;9.862;2023-06-26T06:52:39;101083.66;;;24.13;73.77
23241;BME280;11789;53.482;9.862;2023-06-26T06:55:07;101079.81;;;24.19;75.62
23241;BME280;11789;53.482;9.862;2023-06-26T06:57:35;101084.78;;;24.25;76.89
23241;BME280;11789;53.482;9.862;2023-06-26T07:00:10;101076.50;;;24.31;73.55
23241;BME280;11789;53.482;9.862;2023-06-26T07:02:37;101068.25;;;24.37;72.52
23241;BME280;11789;53.482;9.862;2023-06-26T07:05:03;101073.91;;;24.47;72.12
23241;BME280;11789;53.482;9.862;2023-06-26T07:07:30;101071.00;;;24.51;70.65
23241;BME280;11789;53.482;9.862;2023-06-26T07:10:01;101064.50;;;24.57;70.53
23241;BME280;11789;53.482;9.862;2023-06-26T07:12:27;101072.28;;;24.60;71.72
23241;BME280;11789;53.482;9.862;2023-06-26T07:14:55;101068.78;;;24.59;70.50
23241;BME280;11789;53.482;9.862;2023-06-26T07:17:20;101067.75;;;24.62;69.70
23241;BME280;11789;53.482;9.862;2023-06-26T07:19:47;101076.63;;;24.61;69.77
23241;BME280;11789;53.482;9.862;2023-06-26T07:22:12;101081.22;;;24.57;70.34
23241;BME280;11789;53.482;9.862;2023-06-26T07:24:37;101083.28;;;24.52;71.89
23241;BME280;11789;53.482;9.862;2023-06-26T07:27:03;101062.12;;;24.52;72.49
23241;BME280;11789;53.482;9.862;2023-06-26T07:29:29;101061.97;;;24.55;71.73
23241;BME280;11789;53.482;9.862;2023-06-26T07:31:54;101067.25;;;24.55;73.90
23241;BME280;11789;53.482;9.862;2023-06-26T07:34:19;101074.16;;;24.58;68.85
23241;BME280;11789;53.482;9.862;2023-06-26T07:36:45;101068.44;;;24.66;64.55
23241;BME280;11789;53.482;9.862;2023-06-26T07:39:10;101069.38;;;24.65;65.71
23241;BME280;11789;53.482;9.862;2023-06-26T07:41:36;101066.22;;;24.74;65.25
23241;BME280;11789;53.482;9.862;2023-06-26T07:44:01;101076.09;;;24.86;65.34
23241;BME280;11789;53.482;9.862;2023-06-26T07:46:27;101072.94;;;24.95;66.22
23241;BME280;11789;53.482;9.862;2023-06-26T07:48:52;101069.75;;;24.89;68.04
23241;BME280;11789;53.482;9.862;2023-06-26T07:51:18;101069.28;;;24.82;68.14
23241;BME280;11789;53.482;9.862;2023-06-26T07:53:43;101068.25;;;24.84;68.46
23241;BME280;11789;53.482;9.862;2023-06-26T07:56:09;101060.97;;;24.88;68.02
23241;BME280;11789;53.482;9.862;2023-06-26T07:58:34;101059.97;;;24.91;65.85
23241;BME280;11789;53.482;9.862;2023-06-26T08:01:00;101056.28;;;24.93;66.74
23241;BME280;11789;53.482;9.862;2023-06-26T08:03:25;101045.69;;;24.93;68.37
23241;BME280;11789;53.482;9.862;2023-06-26T08:05:50;101052.03;;;24.91;69.97
23241;BME280;11789;53.482;9.862;2023-06-26T08:08:16;101044.34;;;24.86;68.28
23241;BME280;11789;53.482;9.862;2023-06-26T08:10:42;101046.06;;;24.87;66.59
23241;BME280;11789;53.482;9.862;2023-06-26T08:13:07;101039.81;;;24.88;66.27
23241;BME280;11789;53.482;9.862;2023-06-26T08:15:32;101033.09;;;24.82;65.82
23241;BME280;11789;53.482;9.862;2023-06-26T08:17:58;101034.56;;;24.72;67.34
23241;BME280;11789;53.482;9.862;2023-06-26T08:20:23;101038.06;;;24.73;69.21
23241;BME280;11789;53.482;9.862;2023-06-26T08:22:49;101039.84;;;24.72;71.37
23241;BME280;11789;53.482;9.862;2023-06-26T08:25:17;101036.38;;;24.72;71.06
23241;BME280;11789;53.482;9.862;2023-06-26T08:27:42;101020.59;;;24.70;69.58
23241;BME280;11789;53.482;9.862;2023-06-26T08:30:08;101034.66;;;24.71;70.06
23241;BME280;11789;53.482;9.862;2023-06-26T08:32:33;101034.50;;;24.74;70.67
23241;BME280;11789;53.482;9.862;2023-06-26T08:34:59;101039.59;;;24.77;71.35
23241;BME280;11789;53.482;9.862;2023-06-26T08:37:24;101045.84;;;24.76;73.04
23241;BME280;11789;53.482;9.862;2023-06-26T08:39:49;101045.84;;;24.76;72.98
23241;BME280;11789;53.482;9.862;2023-06-26T08:42:15;101055.66;;;24.74;72.98
23241;BME280;11789;53.482;9.862;2023-06-26T08:44:40;101080.56;;;24.70;72.09
23241;BME280;11789;53.482;9.862;2023-06-26T08:47:06;101076.63;;;24.61;72.66
23241;BME280;11789;53.482;9.862;2023-06-26T08:52:19;101089.44;;;24.69;73.16
23241;BME280;11789;53.482;9.862;2023-06-26T08:54:54;101090.87;;;24.74;73.40
23241;BME280;11789;53.482;9.862;2023-06-26T08:57:23;101088.97;;;24.76;73.94
23241;BME280;11789;53.482;9.862;2023-06-26T08:59:49;101087.03;;;24.80;75.06
23241;BME280;11789;53.482;9.862;2023-06-26T09:02:15;101089.06;;;24.91;73.54
23241;BME280;11789;53.482;9.862;2023-06-26T09:04:40;101098.88;;;25.04;73.32
23241;BME280;11789;53.482;9.862;2023-06-26T09:07:07;101104.56;;;25.13;72.26
23241;BME280;11789;53.482;9.862;2023-06-26T09:09:32;101109.88;;;25.13;72.03
23241;BME280;11789;53.482;9.862;2023-06-26T09:11:58;101104.69;;;25.11;72.32
23241;BME280;11789;53.482;9.862;2023-06-26T09:14:24;101108.41;;;25.23;72.33
23241;BME280;11789;53.482;9.862;2023-06-26T09:16:50;101114.94;;;25.31;72.83
23241;BME280;11789;53.482;9.862;2023-06-26T09:19:15;101124.16;;;25.40;70.62
23241;BME280;11789;53.482;9.862;2023-06-26T09:21:42;101135.88;;;25.36;70.04
23241;BME280;11789;53.482;9.862;2023-06-26T09:24:09;101136.62;;;25.38;72.15
23241;BME280;11789;53.482;9.862;2023-06-26T09:26:39;101137.97;;;25.45;71.61
23241;BME280;11789;53.482;9.862;2023-06-26T09:29:06;101143.50;;;25.56;72.60
23241;BME280;11789;53.482;9.862;2023-06-26T09:31:32;101142.31;;;25.46;70.38
23241;BME280;11789;53.482;9.862;2023-06-26T09:33:58;101146.28;;;25.23;71.21
23241;BME280;11789;53.482;9.862;2023-06-26T09:36:29;101143.75;;;25.06;72.30
23241;BME280;11789;53.482;9.862;2023-06-26T09:39:02;101157.38;;;24.98;72.69
23241;BME280;11789;53.482;9.862;2023-06-26T09:41:30;101158.16;;;25.00;72.37
23241;BME280;11789;53.482;9.862;2023-06-26T09:44:01;101160.88;;;24.99;73.36
23241;BME280;11789;53.482;9.862;2023-06-26T09:46:29;101167.56;;;24.90;72.41
23241;BME280;11789;53.482;9.862;2023-06-26T09:48:59;101168.91;;;24.66;72.89
23241;BME280;11789;53.482;9.862;2023-06-26T09:51:26;101178.16;;;24.41;74.51
23241;BME280;11789;53.482;9.862;2023-06-26T09:53:51;101184.66;;;24.18;75.05
23241;BME280;11789;53.482;9.862;2023-06-26T09:56:17;101189.69;;;24.05;75.44
23241;BME280;11789;53.482;9.862;2023-06-26T09:58:44;101187.72;;;23.93;75.12
23241;BME280;11789;53.482;9.862;2023-06-26T10:01:10;101199.19;;;23.75;75.55
23241;BME280;11789;53.482;9.862;2023-06-26T10:03:35;101197.28;;;23.60;77.17
23241;BME280;11789;53.482;9.862;2023-06-26T10:06:02;101215.44;;;23.48;77.88
23241;BME280;11789;53.482;9.862;2023-06-26T10:08:29;101226.56;;;23.36;79.26
23241;BME280;11789;53.482;9.862;2023-06-26T10:10:56;101252.62;;;23.25;81.46
23241;BME280;11789;53.482;9.862;2023-06-26T10:13:31;101281.28;;;22.95;87.15
23241;BME280;11789;53.482;9.862;2023-06-26T10:16:00;101296.81;;;22.62;91.05
23241;BME280;11789;53.482;9.862;2023-06-26T10:18:27;101313.94;;;22.31;98.85
23241;BME280;11789;53.482;9.862;2023-06-26T10:20:55;101307.50;;;21.96;100.00
23241;BME280;11789;53.482;9.862;2023-06-26T10:23:23;101280.75;;;21.63;100.00
23241;BME280;11789;53.482;9.862;2023-06-26T10:25:52;101270.97;;;21.44;100.00
23241;BME280;11789;53.482;9.862;2023-06-26T10:28:22;101289.00;;;21.32;100.00
23241;BME280;11789;53.482;9.862;2023-06-26T10:30:50;101290.16;;;21.23;100.00
23241;BME280;11789;53.482;9.862;2023-06-26T10:33:16;101289.56;;;21.16;100.00
23241;BME280;11789;53.482;9.862;2023-06-26T10:35:43;101276.56;;;21.12;100.00
23241;BME280;11789;53.482;9.862;2023-06-26T10:38:09;101276.72;;;21.09;100.00
23241;BME280;11789;53.482;9.862;2023-06-26T10:40:43;101285.63;;;21.05;100.00
23241;BME280;11789;53.482;9.862;2023-06-26T10:43:12;101287.50;;;21.01;100.00
23241;BME280;11789;53.482;9.862;2023-06-26T10:45:45;101299.00;;;20.98;100.00
23241;BME280;11789;53.482;9.862;2023-06-26T10:48:13;101294.47;;;21.02;100.00
23241;BME280;11789;53.482;9.862;2023-06-26T10:50:39;101298.63;;;21.08;100.00
23241;BME280;11789;53.482;9.862;2023-06-26T10:53:23;101309.06;;;21.11;100.00
23241;BME280;11789;53.482;9.862;2023-06-26T10:56:00;101313.03;;;21.21;100.00
23241;BME280;11789;53.482;9.862;2023-06-26T10:58:32;101313.62;;;21.29;100.00
23241;BME280;11789;53.482;9.862;2023-06-26T11:03:37;101311.28;;;21.45;100.00
23241;BME280;11789;53.482;9.862;2023-06-26T11:06:19;101311.97;;;21.50;100.00
23241;BME280;11789;53.482;9.862;2023-06-26T11:11:12;101325.75;;;21.33;100.00
23241;BME280;11789;53.482;9.862;2023-06-26T11:13:39;101329.56;;;21.24;100.00
23241;BME280;11789;53.482;9.862;2023-06-26T11:16:05;101335.03;;;21.18;100.00
23241;BME280;11789;53.482;9.862;2023-06-26T11:18:31;101332.13;;;21.03;100.00
23241;BME280;11789;53.482;9.862;2023-06-26T11:21:13;101350.19;;;20.88;100.00
23241;BME280;11789;53.482;9.862;2023-06-26T11:23:39;101353.84;;;20.84;100.00
23241;BME280;11789;53.482;9.862;2023-06-26T11:26:18;101352.00;;;20.86;100.00
23241;BME280;11789;53.482;9.862;2023-06-26T11:28:51;101342.94;;;20.95;100.00
23241;BME280;11789;53.482;9.862;2023-06-26T11:31:24;101351.28;;;21.06;100.00
23241;BME280;11789;53.482;9.862;2023-06-26T11:33:50;101349.94;;;21.19;100.00
23241;BME280;11789;53.482;9.862;2023-06-26T11:36:15;101354.50;;;21.38;100.00
23241;BME280;11789;53.482;9.862;2023-06-26T11:38:41;101360.59;;;21.40;100.00
23241;BME280;11789;53.482;9.862;2023-06-26T11:41:07;101366.13;;;21.32;99.46
23241;BME280;11789;53.482;9.862;2023-06-26T11:43:34;101370.78;;;21.24;96.62
23241;BME280;11789;53.482;9.862;2023-06-26T11:45:59;101370.16;;;21.17;96.41
23241;BME280;11789;53.482;9.862;2023-06-26T11:48:25;101374.44;;;21.20;98.62
23241;BME280;11789;53.482;9.862;2023-06-26T11:50:51;101381.12;;;21.30;100.00
23241;BME280;11789;53.482;9.862;2023-06-26T11:53:17;101382.50;;;21.40;100.00
23241;BME280;11789;53.482;9.862;2023-06-26T11:55:42;101400.06;;;21.38;94.98
23241;BME280;11789;53.482;9.862;2023-06-26T11:58:08;101400.84;;;21.17;87.99
23241;BME280;11789;53.482;9.862;2023-06-26T12:00:33;101408.25;;;21.06;88.26
23241;BME280;11789;53.482;9.862;2023-06-26T12:02:59;101405.00;;;20.99;89.42
23241;BME280;11789;53.482;9.862;2023-06-26T12:05:24;101408.44;;;21.01;88.00
23241;BME280;11789;53.482;9.862;2023-06-26T12:07:50;101409.87;;;21.10;89.34
23241;BME280;11789;53.482;9.862;2023-06-26T12:10:17;101400.97;;;21.14;89.38
23241;BME280;11789;53.482;9.862;2023-06-26T12:12:45;101397.44;;;21.15;88.26
23241;BME280;11789;53.482;9.862;2023-06-26T12:15:15;101389.47;;;21.16;82.61
23241;BME280;11789;53.482;9.862;2023-06-26T12:17:41;101403.88;;;21.31;82.29
23241;BME280;11789;53.482;9.862;2023-06-26T12:20:18;101396.44;;;21.42;81.96
23241;BME280;11789;53.482;9.862;2023-06-26T12:22:46;101401.81;;;21.39;82.02
23241;BME280;11789;53.482;9.862;2023-06-26T12:25:12;101407.88;;;21.41;81.93
23241;BME280;11789;53.482;9.862;2023-06-26T12:27:37;101415.34;;;21.52;80.71
23241;BME280;11789;53.482;9.862;2023-06-26T12:30:04;101413.16;;;21.63;81.86
23241;BME280;11789;53.482;9.862;2023-06-26T12:32:30;101410.19;;;21.72;82.01
23241;BME280;11789;53.482;9.862;2023-06-26T12:34:57;101416.53;;;21.90;80.02
23241;BME280;11789;53.482;9.862;2023-06-26T12:37:23;101414.44;;;21.98;79.78
23241;BME280;11789;53.482;9.862;2023-06-26T12:39:56;101413.75;;;21.93;75.90
23241;BME280;11789;53.482;9.862;2023-06-26T12:42:27;101417.13;;;21.75;75.34
23241;BME280;11789;53.482;9.862;2023-06-26T12:44:53;101419.87;;;21.72;74.90
23241;BME280;11789;53.482;9.862;2023-06-26T12:47:27;101421.56;;;21.73;73.55
23241;BME280;11789;53.482;9.862;2023-06-26T12:49:53;101420.47;;;21.79;76.00
23241;BME280;11789;53.482;9.862;2023-06-26T12:52:20;101411.19;;;21.92;75.83
23241;BME280;11789;53.482;9.862;2023-06-26T12:54:46;101422.59;;;21.92;71.91
23241;BME280;11789;53.482;9.862;2023-06-26T12:57:13;101418.06;;;21.96;73.82
23241;BME280;11789;53.482;9.862;2023-06-26T12:59:39;101426.50;;;21.82;71.32